Lexington, Michigan
Current Conditions -  °F | °C
As of 1:00 AM on Monday 22 Dec 2014 (Local Time) from CYZR Reporting Station
Haze Haze  
Wind Chill: 25°   Ceiling: 2600
Heat Index: 25°   Visibility: 5mi
Dew Point: 23°   Wind: 3mph
Humidity: 93%   Direction: 120°ESE
Pressure: 30.19"   Gusts: NA
Location:  43.27°N, 82.53°W
Report Text: CYZR 220600Z AUTO 12003KT 5SM BR OVC026 M04/M05 A3019 RMK SLP230
Loading
Personal Weather Stations






























Interactive Weather Map New forecast layout! Learn more

10-Day Weather Forecast

Advertisements
Track Severe Weather on mobile